sensor_id;sensor_type;location;lat;lon;timestamp;P1;durP1;ratioP1;P2;durP2;ratioP2
44214;SDS011;29884;47.450;19.124;2024-02-23T00:01:35;1.48;;;0.70;;
44214;SDS011;29884;47.450;19.124;2024-02-23T00:04:01;1.75;;;0.50;;
44214;SDS011;29884;47.450;19.124;2024-02-23T00:06:27;1.92;;;0.65;;
44214;SDS011;29884;47.450;19.124;2024-02-23T00:08:53;1.27;;;0.65;;
44214;SDS011;29884;47.450;19.124;2024-02-23T00:11:20;2.35;;;0.70;;
44214;SDS011;29884;47.450;19.124;2024-02-23T00:13:46;1.30;;;0.68;;
44214;SDS011;29884;47.450;19.124;2024-02-23T00:16:11;1.33;;;0.60;;
44214;SDS011;29884;47.450;19.124;2024-02-23T00:18:37;1.48;;;0.60;;
44214;SDS011;29884;47.450;19.124;2024-02-23T00:21:03;2.53;;;0.60;;
44214;SDS011;29884;47.450;19.124;2024-02-23T00:23:29;1.83;;;0.70;;
44214;SDS011;29884;47.450;19.124;2024-02-23T00:25:55;3.15;;;0.68;;
44214;SDS011;29884;47.450;19.124;2024-02-23T00:28:21;1.45;;;0.60;;
44214;SDS011;29884;47.450;19.124;2024-02-23T00:30:46;1.30;;;0.80;;
44214;SDS011;29884;47.450;19.124;2024-02-23T00:33:12;1.90;;;0.80;;
44214;SDS011;29884;47.450;19.124;2024-02-23T00:35:37;1.83;;;0.80;;
44214;SDS011;29884;47.450;19.124;2024-02-23T00:38:03;0.93;;;0.60;;
44214;SDS011;29884;47.450;19.124;2024-02-23T00:40:29;1.23;;;0.73;;
44214;SDS011;29884;47.450;19.124;2024-02-23T00:42:55;2.58;;;0.77;;
44214;SDS011;29884;47.450;19.124;2024-02-23T00:45:20;1.58;;;0.80;;
44214;SDS011;29884;47.450;19.124;2024-02-23T00:47:46;1.95;;;0.90;;
44214;SDS011;29884;47.450;19.124;2024-02-23T00:50:12;1.80;;;0.90;;
44214;SDS011;29884;47.450;19.124;2024-02-23T00:52:38;1.63;;;0.90;;
44214;SDS011;29884;47.450;19.124;2024-02-23T00:55:04;1.83;;;0.90;;
44214;SDS011;29884;47.450;19.124;2024-02-23T00:57:30;1.85;;;0.80;;
44214;SDS011;29884;47.450;19.124;2024-02-23T00:59:56;1.35;;;0.70;;
44214;SDS011;29884;47.450;19.124;2024-02-23T01:02:22;1.88;;;0.85;;
44214;SDS011;29884;47.450;19.124;2024-02-23T01:04:47;2.60;;;0.80;;
44214;SDS011;29884;47.450;19.124;2024-02-23T01:07:13;1.58;;;0.73;;
44214;SDS011;29884;47.450;19.124;2024-02-23T01:09:38;1.95;;;0.75;;
44214;SDS011;29884;47.450;19.124;2024-02-23T01:12:04;1.30;;;0.80;;
44214;SDS011;29884;47.450;19.124;2024-02-23T01:14:30;1.67;;;0.80;;
44214;SDS011;29884;47.450;19.124;2024-02-23T01:16:56;1.20;;;0.70;;
44214;SDS011;29884;47.450;19.124;2024-02-23T01:19:21;1.40;;;0.77;;
44214;SDS011;29884;47.450;19.124;2024-02-23T01:21:48;1.15;;;0.63;;
44214;SDS011;29884;47.450;19.124;2024-02-23T01:24:18;2.10;;;0.80;;
44214;SDS011;29884;47.450;19.124;2024-02-23T01:26:43;1.17;;;0.73;;
44214;SDS011;29884;47.450;19.124;2024-02-23T01:29:09;1.90;;;0.63;;
44214;SDS011;29884;47.450;19.124;2024-02-23T01:31:34;1.48;;;0.80;;
44214;SDS011;29884;47.450;19.124;2024-02-23T01:34:00;1.30;;;0.77;;
44214;SDS011;29884;47.450;19.124;2024-02-23T01:36:25;2.22;;;0.80;;
44214;SDS011;29884;47.450;19.124;2024-02-23T01:38:51;1.50;;;0.70;;
44214;SDS011;29884;47.450;19.124;2024-02-23T01:41:16;1.63;;;0.80;;
44214;SDS011;29884;47.450;19.124;2024-02-23T01:43:42;2.70;;;0.90;;
44214;SDS011;29884;47.450;19.124;2024-02-23T01:46:08;1.38;;;0.90;;
44214;SDS011;29884;47.450;19.124;2024-02-23T01:48:33;1.65;;;0.82;;
44214;SDS011;29884;47.450;19.124;2024-02-23T01:50:59;1.77;;;0.93;;
44214;SDS011;29884;47.450;19.124;2024-02-23T01:53:25;2.97;;;0.90;;
44214;SDS011;29884;47.450;19.124;2024-02-23T01:55:52;1.15;;;0.60;;
44214;SDS011;29884;47.450;19.124;2024-02-23T01:58:19;1.25;;;0.68;;
44214;SDS011;29884;47.450;19.124;2024-02-23T02:00:44;1.20;;;0.70;;
44214;SDS011;29884;47.450;19.124;2024-02-23T02:03:10;1.70;;;0.73;;
44214;SDS011;29884;47.450;19.124;2024-02-23T02:05:36;4.82;;;0.70;;
44214;SDS011;29884;47.450;19.124;2024-02-23T02:08:02;2.95;;;0.98;;
44214;SDS011;29884;47.450;19.124;2024-02-23T02:10:29;1.95;;;0.82;;
44214;SDS011;29884;47.450;19.124;2024-02-23T02:12:54;1.45;;;0.60;;
44214;SDS011;29884;47.450;19.124;2024-02-23T02:15:20;1.40;;;0.70;;
44214;SDS011;29884;47.450;19.124;2024-02-23T02:17:47;1.67;;;0.70;;
44214;SDS011;29884;47.450;19.124;2024-02-23T02:20:13;2.10;;;0.90;;
44214;SDS011;29884;47.450;19.124;2024-02-23T02:22:39;1.83;;;0.80;;
44214;SDS011;29884;47.450;19.124;2024-02-23T02:25:05;1.83;;;0.80;;
44214;SDS011;29884;47.450;19.124;2024-02-23T02:27:31;1.58;;;0.70;;
44214;SDS011;29884;47.450;19.124;2024-02-23T02:29:57;1.33;;;0.70;;
44214;SDS011;29884;47.450;19.124;2024-02-23T02:32:22;1.25;;;0.68;;
44214;SDS011;29884;47.450;19.124;2024-02-23T02:34:48;1.92;;;0.70;;
44214;SDS011;29884;47.450;19.124;2024-02-23T02:37:14;1.30;;;0.70;;
44214;SDS011;29884;47.450;19.124;2024-02-23T02:39:40;2.55;;;0.80;;
44214;SDS011;29884;47.450;19.124;2024-02-23T02:42:06;1.23;;;0.68;;
44214;SDS011;29884;47.450;19.124;2024-02-23T02:44:31;1.02;;;0.68;;
44214;SDS011;29884;47.450;19.124;2024-02-23T02:46:57;1.40;;;0.70;;
44214;SDS011;29884;47.450;19.124;2024-02-23T02:49:23;1.25;;;0.63;;
44214;SDS011;29884;47.450;19.124;2024-02-23T02:51:49;1.15;;;0.68;;
44214;SDS011;29884;47.450;19.124;2024-02-23T02:54:15;3.03;;;0.80;;
44214;SDS011;29884;47.450;19.124;2024-02-23T02:56:44;3.53;;;0.70;;
44214;SDS011;29884;47.450;19.124;2024-02-23T02:59:11;1.45;;;0.82;;
44214;SDS011;29884;47.450;19.124;2024-02-23T03:01:37;1.70;;;0.77;;
44214;SDS011;29884;47.450;19.124;2024-02-23T03:04:03;1.65;;;0.90;;
44214;SDS011;29884;47.450;19.124;2024-02-23T03:06:28;1.35;;;0.70;;
44214;SDS011;29884;47.450;19.124;2024-02-23T03:08:54;1.48;;;0.70;;
44214;SDS011;29884;47.450;19.124;2024-02-23T03:11:19;1.17;;;0.77;;
44214;SDS011;29884;47.450;19.124;2024-02-23T03:13:45;2.85;;;0.80;;
44214;SDS011;29884;47.450;19.124;2024-02-23T03:16:14;2.05;;;0.90;;
44214;SDS011;29884;47.450;19.124;2024-02-23T03:18:41;1.80;;;0.80;;
44214;SDS011;29884;47.450;19.124;2024-02-23T03:21:06;1.50;;;0.73;;
44214;SDS011;29884;47.450;19.124;2024-02-23T03:23:34;1.60;;;0.80;;
44214;SDS011;29884;47.450;19.124;2024-02-23T03:26:03;1.80;;;0.90;;
44214;SDS011;29884;47.450;19.124;2024-02-23T03:28:28;1.38;;;0.80;;
44214;SDS011;29884;47.450;19.124;2024-02-23T03:30:54;2.42;;;0.75;;
44214;SDS011;29884;47.450;19.124;2024-02-23T03:33:20;3.15;;;0.70;;
44214;SDS011;29884;47.450;19.124;2024-02-23T03:35:45;2.05;;;0.90;;
44214;SDS011;29884;47.450;19.124;2024-02-23T03:38:11;1.92;;;0.70;;
44214;SDS011;29884;47.450;19.124;2024-02-23T03:40:36;1.90;;;0.80;;
44214;SDS011;29884;47.450;19.124;2024-02-23T03:43:02;1.63;;;0.85;;
44214;SDS011;29884;47.450;19.124;2024-02-23T03:45:28;2.38;;;0.75;;
44214;SDS011;29884;47.450;19.124;2024-02-23T03:47:54;2.88;;;0.80;;
44214;SDS011;29884;47.450;19.124;2024-02-23T03:50:19;2.10;;;0.90;;
44214;SDS011;29884;47.450;19.124;2024-02-23T03:52:45;1.40;;;0.90;;
44214;SDS011;29884;47.450;19.124;2024-02-23T03:55:11;2.60;;;0.95;;
44214;SDS011;29884;47.450;19.124;2024-02-23T03:57:36;3.72;;;1.13;;
44214;SDS011;29884;47.450;19.124;2024-02-23T04:00:02;1.77;;;0.75;;
44214;SDS011;29884;47.450;19.124;2024-02-23T04:02:28;1.92;;;0.80;;
44214;SDS011;29884;47.450;19.124;2024-02-23T04:04:54;1.63;;;0.90;;
44214;SDS011;29884;47.450;19.124;2024-02-23T04:07:20;1.98;;;1.00;;
44214;SDS011;29884;47.450;19.124;2024-02-23T04:09:46;2.63;;;0.70;;
44214;SDS011;29884;47.450;19.124;2024-02-23T04:12:17;2.38;;;1.02;;
44214;SDS011;29884;47.450;19.124;2024-02-23T04:14:44;2.25;;;0.75;;
44214;SDS011;29884;47.450;19.124;2024-02-23T04:17:10;2.25;;;1.05;;
44214;SDS011;29884;47.450;19.124;2024-02-23T04:19:37;1.80;;;1.00;;
44214;SDS011;29884;47.450;19.124;2024-02-23T04:22:03;1.95;;;1.08;;
44214;SDS011;29884;47.450;19.124;2024-02-23T04:24:33;1.52;;;0.90;;
44214;SDS011;29884;47.450;19.124;2024-02-23T04:26:59;1.98;;;0.93;;
44214;SDS011;29884;47.450;19.124;2024-02-23T04:29:25;1.75;;;0.90;;
44214;SDS011;29884;47.450;19.124;2024-02-23T04:31:50;1.70;;;0.90;;
44214;SDS011;29884;47.450;19.124;2024-02-23T04:34:16;2.47;;;1.20;;
44214;SDS011;29884;47.450;19.124;2024-02-23T04:36:41;2.70;;;0.90;;
44214;SDS011;29884;47.450;19.124;2024-02-23T04:39:07;3.53;;;1.00;;
44214;SDS011;29884;47.450;19.124;2024-02-23T04:41:33;1.77;;;1.00;;
44214;SDS011;29884;47.450;19.124;2024-02-23T04:43:59;1.60;;;1.00;;
44214;SDS011;29884;47.450;19.124;2024-02-23T04:46:26;3.30;;;0.90;;
44214;SDS011;29884;47.450;19.124;2024-02-23T04:48:51;2.60;;;1.10;;
44214;SDS011;29884;47.450;19.124;2024-02-23T04:51:17;3.50;;;1.00;;
44214;SDS011;29884;47.450;19.124;2024-02-23T04:53:43;3.42;;;1.20;;
44214;SDS011;29884;47.450;19.124;2024-02-23T04:56:09;1.90;;;1.17;;
44214;SDS011;29884;47.450;19.124;2024-02-23T04:58:34;2.40;;;1.10;;
44214;SDS011;29884;47.450;19.124;2024-02-23T05:01:01;3.50;;;1.10;;
44214;SDS011;29884;47.450;19.124;2024-02-23T05:03:28;2.47;;;1.00;;
44214;SDS011;29884;47.450;19.124;2024-02-23T05:05:54;1.83;;;0.93;;
44214;SDS011;29884;47.450;19.124;2024-02-23T05:08:20;1.67;;;0.90;;
44214;SDS011;29884;47.450;19.124;2024-02-23T05:10:46;3.22;;;1.10;;
44214;SDS011;29884;47.450;19.124;2024-02-23T05:13:12;2.80;;;1.05;;
44214;SDS011;29884;47.450;19.124;2024-02-23T05:15:38;3.50;;;0.90;;
44214;SDS011;29884;47.450;19.124;2024-02-23T05:18:04;2.33;;;1.10;;
44214;SDS011;29884;47.450;19.124;2024-02-23T05:20:30;1.83;;;0.80;;
44214;SDS011;29884;47.450;19.124;2024-02-23T05:22:56;4.50;;;0.82;;
44214;SDS011;29884;47.450;19.124;2024-02-23T05:25:21;3.08;;;0.80;;
44214;SDS011;29884;47.450;19.124;2024-02-23T05:27:47;2.83;;;0.82;;
44214;SDS011;29884;47.450;19.124;2024-02-23T05:30:13;1.10;;;0.60;;
44214;SDS011;29884;47.450;19.124;2024-02-23T05:32:38;2.60;;;0.60;;
44214;SDS011;29884;47.450;19.124;2024-02-23T05:35:04;3.03;;;0.60;;
44214;SDS011;29884;47.450;19.124;2024-02-23T05:37:30;1.15;;;0.60;;
44214;SDS011;29884;47.450;19.124;2024-02-23T05:39:56;2.30;;;0.85;;
44214;SDS011;29884;47.450;19.124;2024-02-23T05:42:24;1.73;;;0.90;;
44214;SDS011;29884;47.450;19.124;2024-02-23T05:44:50;4.55;;;1.00;;
44214;SDS011;29884;47.450;19.124;2024-02-23T05:47:16;2.05;;;0.90;;
44214;SDS011;29884;47.450;19.124;2024-02-23T05:49:42;2.10;;;1.00;;
44214;SDS011;29884;47.450;19.124;2024-02-23T05:52:08;4.47;;;0.80;;
44214;SDS011;29884;47.450;19.124;2024-02-23T05:54:34;2.90;;;0.80;;
44214;SDS011;29884;47.450;19.124;2024-02-23T05:57:00;1.45;;;0.90;;
44214;SDS011;29884;47.450;19.124;2024-02-23T05:59:27;2.80;;;0.93;;
44214;SDS011;29884;47.450;19.124;2024-02-23T06:01:53;3.03;;;1.05;;
44214;SDS011;29884;47.450;19.124;2024-02-23T06:04:22;2.55;;;0.85;;
44214;SDS011;29884;47.450;19.124;2024-02-23T06:06:48;1.50;;;0.90;;
44214;SDS011;29884;47.450;19.124;2024-02-23T06:09:14;2.08;;;0.90;;
44214;SDS011;29884;47.450;19.124;2024-02-23T06:11:41;2.92;;;0.80;;
44214;SDS011;29884;47.450;19.124;2024-02-23T06:14:07;2.10;;;0.98;;
44214;SDS011;29884;47.450;19.124;2024-02-23T06:16:33;1.60;;;0.90;;
44214;SDS011;29884;47.450;19.124;2024-02-23T06:18:59;2.95;;;1.20;;
44214;SDS011;29884;47.450;19.124;2024-02-23T06:21:25;2.55;;;1.02;;
44214;SDS011;29884;47.450;19.124;2024-02-23T06:23:51;2.17;;;1.20;;
44214;SDS011;29884;47.450;19.124;2024-02-23T06:26:17;3.25;;;1.20;;
44214;SDS011;29884;47.450;19.124;2024-02-23T06:28:43;2.63;;;1.10;;
44214;SDS011;29884;47.450;19.124;2024-02-23T06:31:09;2.78;;;1.20;;
44214;SDS011;29884;47.450;19.124;2024-02-23T06:33:35;2.22;;;1.10;;
44214;SDS011;29884;47.450;19.124;2024-02-23T06:36:01;3.75;;;1.27;;
44214;SDS011;29884;47.450;19.124;2024-02-23T06:38:30;2.72;;;1.23;;
44214;SDS011;29884;47.450;19.124;2024-02-23T06:40:56;2.13;;;1.27;;
44214;SDS011;29884;47.450;19.124;2024-02-23T06:43:22;3.72;;;1.30;;
44214;SDS011;29884;47.450;19.124;2024-02-23T06:45:47;5.93;;;1.20;;
44214;SDS011;29884;47.450;19.124;2024-02-23T06:48:13;3.13;;;1.40;;
44214;SDS011;29884;47.450;19.124;2024-02-23T06:50:39;3.85;;;1.20;;
44214;SDS011;29884;47.450;19.124;2024-02-23T06:53:04;2.47;;;1.27;;
44214;SDS011;29884;47.450;19.124;2024-02-23T06:55:31;3.75;;;1.35;;
44214;SDS011;29884;47.450;19.124;2024-02-23T06:57:58;3.58;;;1.55;;
44214;SDS011;29884;47.450;19.124;2024-02-23T07:00:24;2.47;;;1.38;;
44214;SDS011;29884;47.450;19.124;2024-02-23T07:02:49;1.60;;;1.10;;
44214;SDS011;29884;47.450;19.124;2024-02-23T07:05:24;7.03;;;1.40;;
44214;SDS011;29884;47.450;19.124;2024-02-23T07:07:53;2.47;;;1.40;;
44214;SDS011;29884;47.450;19.124;2024-02-23T07:10:19;2.67;;;1.38;;
44214;SDS011;29884;47.450;19.124;2024-02-23T07:12:47;2.35;;;1.48;;
44214;SDS011;29884;47.450;19.124;2024-02-23T07:15:13;2.78;;;1.83;;
44214;SDS011;29884;47.450;19.124;2024-02-23T07:17:39;2.75;;;1.70;;
44214;SDS011;29884;47.450;19.124;2024-02-23T07:20:04;4.80;;;1.70;;
44214;SDS011;29884;47.450;19.124;2024-02-23T07:22:31;4.10;;;1.90;;
44214;SDS011;29884;47.450;19.124;2024-02-23T07:24:57;5.00;;;1.95;;
44214;SDS011;29884;47.450;19.124;2024-02-23T07:27:23;3.05;;;2.05;;
44214;SDS011;29884;47.450;19.124;2024-02-23T07:29:48;5.97;;;2.15;;
44214;SDS011;29884;47.450;19.124;2024-02-23T07:32:14;4.05;;;1.80;;
44214;SDS011;29884;47.450;19.124;2024-02-23T07:34:40;4.80;;;1.85;;
44214;SDS011;29884;47.450;19.124;2024-02-23T07:37:06;4.50;;;1.90;;
44214;SDS011;29884;47.450;19.124;2024-02-23T07:39:31;3.83;;;1.90;;
44214;SDS011;29884;47.450;19.124;2024-02-23T07:41:58;5.80;;;2.42;;
44214;SDS011;29884;47.450;19.124;2024-02-23T07:44:23;6.15;;;2.47;;
44214;SDS011;29884;47.450;19.124;2024-02-23T07:46:50;3.10;;;1.90;;
44214;SDS011;29884;47.450;19.124;2024-02-23T07:49:17;5.07;;;2.30;;
44214;SDS011;29884;47.450;19.124;2024-02-23T07:51:44;3.22;;;2.20;;
44214;SDS011;29884;47.450;19.124;2024-02-23T07:54:16;3.40;;;2.05;;
44214;SDS011;29884;47.450;19.124;2024-02-23T07:56:41;3.25;;;2.10;;
44214;SDS011;29884;47.450;19.124;2024-02-23T07:59:07;3.88;;;2.20;;
44214;SDS011;29884;47.450;19.124;2024-02-23T08:01:33;4.30;;;2.28;;
44214;SDS011;29884;47.450;19.124;2024-02-23T08:03:59;5.07;;;2.55;;
44214;SDS011;29884;47.450;19.124;2024-02-23T08:06:25;4.18;;;2.40;;
44214;SDS011;29884;47.450;19.124;2024-02-23T08:08:51;3.95;;;2.03;;
44214;SDS011;29884;47.450;19.124;2024-02-23T08:11:18;4.20;;;2.08;;
44214;SDS011;29884;47.450;19.124;2024-02-23T08:13:44;5.18;;;1.67;;
44214;SDS011;29884;47.450;19.124;2024-02-23T08:16:10;4.72;;;2.13;;
44214;SDS011;29884;47.450;19.124;2024-02-23T08:18:35;6.13;;;2.60;;
44214;SDS011;29884;47.450;19.124;2024-02-23T08:21:01;4.60;;;2.00;;
44214;SDS011;29884;47.450;19.124;2024-02-23T08:23:28;3.08;;;1.52;;
44214;SDS011;29884;47.450;19.124;2024-02-23T08:25:55;3.10;;;1.88;;
44214;SDS011;29884;47.450;19.124;2024-02-23T08:28:22;3.20;;;1.52;;
44214;SDS011;29884;47.450;19.124;2024-02-23T08:30:48;2.42;;;1.50;;
44214;SDS011;29884;47.450;19.124;2024-02-23T08:33:14;4.03;;;1.73;;
44214;SDS011;29884;47.450;19.124;2024-02-23T08:35:39;3.58;;;1.55;;
44214;SDS011;29884;47.450;19.124;2024-02-23T08:38:05;2.72;;;1.30;;
44214;SDS011;29884;47.450;19.124;2024-02-23T08:40:32;3.88;;;1.85;;
44214;SDS011;29884;47.450;19.124;2024-02-23T08:42:57;2.70;;;1.45;;
44214;SDS011;29884;47.450;19.124;2024-02-23T08:45:23;3.13;;;1.38;;
44214;SDS011;29884;47.450;19.124;2024-02-23T08:47:48;3.47;;;1.92;;
44214;SDS011;29884;47.450;19.124;2024-02-23T08:50:14;2.85;;;1.80;;
44214;SDS011;29884;47.450;19.124;2024-02-23T08:52:40;2.67;;;1.45;;
44214;SDS011;29884;47.450;19.124;2024-02-23T08:55:05;3.13;;;1.80;;
44214;SDS011;29884;47.450;19.124;2024-02-23T08:57:31;2.95;;;1.70;;
44214;SDS011;29884;47.450;19.124;2024-02-23T08:59:57;2.60;;;1.65;;
44214;SDS011;29884;47.450;19.124;2024-02-23T09:02:23;2.60;;;1.67;;
44214;SDS011;29884;47.450;19.124;2024-02-23T09:04:49;4.50;;;1.90;;
44214;SDS011;29884;47.450;19.124;2024-02-23T09:07:15;4.70;;;1.77;;
44214;SDS011;29884;47.450;19.124;2024-02-23T09:09:40;3.92;;;1.83;;
44214;SDS011;29884;47.450;19.124;2024-02-23T09:12:26;6.38;;;1.77;;
44214;SDS011;29884;47.450;19.124;2024-02-23T09:14:51;3.65;;;1.70;;
44214;SDS011;29884;47.450;19.124;2024-02-23T09:17:17;4.13;;;2.22;;
44214;SDS011;29884;47.450;19.124;2024-02-23T09:19:46;4.07;;;1.90;;
44214;SDS011;29884;47.450;19.124;2024-02-23T09:22:13;4.70;;;1.70;;
44214;SDS011;29884;47.450;19.124;2024-02-23T09:24:39;4.20;;;1.77;;
44214;SDS011;29884;47.450;19.124;2024-02-23T09:27:08;3.28;;;1.63;;
44214;SDS011;29884;47.450;19.124;2024-02-23T09:29:34;3.70;;;1.30;;
44214;SDS011;29884;47.450;19.124;2024-02-23T09:32:00;3.75;;;1.80;;
44214;SDS011;29884;47.450;19.124;2024-02-23T09:34:26;2.08;;;1.30;;
44214;SDS011;29884;47.450;19.124;2024-02-23T09:36:51;2.60;;;1.40;;
44214;SDS011;29884;47.450;19.124;2024-02-23T09:39:17;4.55;;;1.35;;
44214;SDS011;29884;47.450;19.124;2024-02-23T09:41:43;2.45;;;1.40;;
44214;SDS011;29884;47.450;19.124;2024-02-23T09:44:09;2.13;;;1.20;;
44214;SDS011;29884;47.450;19.124;2024-02-23T09:46:38;3.78;;;1.40;;
44214;SDS011;29884;47.450;19.124;2024-02-23T09:49:05;2.20;;;1.10;;
44214;SDS011;29884;47.450;19.124;2024-02-23T09:51:33;2.95;;;1.42;;
44214;SDS011;29884;47.450;19.124;2024-02-23T09:54:01;3.28;;;1.42;;
44214;SDS011;29884;47.450;19.124;2024-02-23T09:56:27;4.97;;;1.40;;
44214;SDS011;29884;47.450;19.124;2024-02-23T09:59:00;2.67;;;1.50;;
44214;SDS011;29884;47.450;19.124;2024-02-23T10:01:29;3.08;;;1.42;;
44214;SDS011;29884;47.450;19.124;2024-02-23T10:03:59;4.15;;;1.30;;
44214;SDS011;29884;47.450;19.124;2024-02-23T10:06:26;2.28;;;1.30;;
44214;SDS011;29884;47.450;19.124;2024-02-23T10:08:52;3.35;;;1.50;;
44214;SDS011;29884;47.450;19.124;2024-02-23T10:11:20;3.25;;;1.52;;
44214;SDS011;29884;47.450;19.124;2024-02-23T10:13:47;3.10;;;1.42;;
44214;SDS011;29884;47.450;19.124;2024-02-23T10:16:17;2.67;;;1.40;;
44214;SDS011;29884;47.450;19.124;2024-02-23T10:18:45;3.65;;;1.55;;
44214;SDS011;29884;47.450;19.124;2024-02-23T10:21:13;2.55;;;1.40;;
44214;SDS011;29884;47.450;19.124;2024-02-23T10:23:39;2.08;;;1.17;;
44214;SDS011;29884;47.450;19.124;2024-02-23T10:26:06;1.83;;;1.13;;
44214;SDS011;29884;47.450;19.124;2024-02-23T10:28:34;3.67;;;1.50;;
44214;SDS011;29884;47.450;19.124;2024-02-23T10:31:05;3.65;;;1.30;;
44214;SDS011;29884;47.450;19.124;2024-02-23T10:33:31;3.28;;;1.30;;
44214;SDS011;29884;47.450;19.124;2024-02-23T10:35:57;2.25;;;1.23;;
44214;SDS011;29884;47.450;19.124;2024-02-23T10:38:28;3.10;;;1.38;;
44214;SDS011;29884;47.450;19.124;2024-02-23T10:40:57;3.53;;;1.20;;
44214;SDS011;29884;47.450;19.124;2024-02-23T10:43:33;2.08;;;1.10;;
44214;SDS011;29884;47.450;19.124;2024-02-23T10:46:07;3.55;;;1.10;;
44214;SDS011;29884;47.450;19.124;2024-02-23T10:48:39;1.80;;;1.00;;
44214;SDS011;29884;47.450;19.124;2024-02-23T10:51:09;2.20;;;1.00;;
44214;SDS011;29884;47.450;19.124;2024-02-23T10:53:39;1.77;;;0.90;;
44214;SDS011;29884;47.450;19.124;2024-02-23T10:56:06;2.38;;;1.05;;
44214;SDS011;29884;47.450;19.124;2024-02-23T10:58:32;3.78;;;1.20;;
44214;SDS011;29884;47.450;19.124;2024-02-23T11:01:02;2.30;;;1.00;;
44214;SDS011;29884;47.450;19.124;2024-02-23T11:03:31;2.15;;;0.95;;
44214;SDS011;29884;47.450;19.124;2024-02-23T11:05:59;2.63;;;1.02;;
44214;SDS011;29884;47.450;19.124;2024-02-23T11:08:27;4.10;;;1.13;;
44214;SDS011;29884;47.450;19.124;2024-02-23T11:11:08;1.60;;;0.95;;
44214;SDS011;29884;47.450;19.124;2024-02-23T11:13:36;2.60;;;0.90;;
44214;SDS011;29884;47.450;19.124;2024-02-23T11:16:03;2.28;;;0.95;;
44214;SDS011;29884;47.450;19.124;2024-02-23T11:18:29;2.35;;;0.90;;
44214;SDS011;29884;47.450;19.124;2024-02-23T11:21:00;2.95;;;0.80;;
44214;SDS011;29884;47.450;19.124;2024-02-23T11:23:42;1.65;;;0.70;;
44214;SDS011;29884;47.450;19.124;2024-02-23T11:26:16;2.35;;;1.10;;
44214;SDS011;29884;47.450;19.124;2024-02-23T11:28:47;2.25;;;0.90;;
44214;SDS011;29884;47.450;19.124;2024-02-23T11:31:15;2.10;;;1.20;;
44214;SDS011;29884;47.450;19.124;2024-02-23T11:33:53;2.53;;;1.02;;
44214;SDS011;29884;47.450;19.124;2024-02-23T11:38:52;1.58;;;0.90;;
44214;SDS011;29884;47.450;19.124;2024-02-23T11:41:20;2.03;;;0.90;;
44214;SDS011;29884;47.450;19.124;2024-02-23T11:43:47;2.28;;;1.10;;
44214;SDS011;29884;47.450;19.124;2024-02-23T11:46:14;2.25;;;0.90;;
44214;SDS011;29884;47.450;19.124;2024-02-23T11:48:41;1.38;;;0.85;;
44214;SDS011;29884;47.450;19.124;2024-02-23T11:51:08;2.85;;;1.10;;
44214;SDS011;29884;47.450;19.124;2024-02-23T11:53:36;4.47;;;1.20;;
44214;SDS011;29884;47.450;19.124;2024-02-23T11:56:03;3.40;;;1.48;;
44214;SDS011;29884;47.450;19.124;2024-02-23T11:58:29;2.60;;;1.45;;
44214;SDS011;29884;47.450;19.124;2024-02-23T12:00:56;3.33;;;1.60;;
44214;SDS011;29884;47.450;19.124;2024-02-23T12:03:21;2.75;;;1.45;;
44214;SDS011;29884;47.450;19.124;2024-02-23T12:05:49;3.33;;;1.65;;
44214;SDS011;29884;47.450;19.124;2024-02-23T12:08:15;4.28;;;1.60;;
44214;SDS011;29884;47.450;19.124;2024-02-23T12:10:42;6.18;;;2.00;;
44214;SDS011;29884;47.450;19.124;2024-02-23T12:13:08;3.15;;;1.70;;
44214;SDS011;29884;47.450;19.124;2024-02-23T12:15:33;3.40;;;1.70;;
44214;SDS011;29884;47.450;19.124;2024-02-23T12:17:59;3.00;;;1.60;;
44214;SDS011;29884;47.450;19.124;2024-02-23T12:20:27;3.75;;;1.85;;
44214;SDS011;29884;47.450;19.124;2024-02-23T12:22:54;4.60;;;1.58;;
44214;SDS011;29884;47.450;19.124;2024-02-23T12:25:21;2.58;;;1.20;;
44214;SDS011;29884;47.450;19.124;2024-02-23T12:27:47;4.32;;;1.50;;
44214;SDS011;29884;47.450;19.124;2024-02-23T12:30:19;2.72;;;1.30;;
44214;SDS011;29884;47.450;19.124;2024-02-23T12:32:45;2.45;;;1.33;;
44214;SDS011;29884;47.450;19.124;2024-02-23T12:35:11;4.97;;;1.42;;
44214;SDS011;29884;47.450;19.124;2024-02-23T12:37:37;2.92;;;1.38;;
44214;SDS011;29884;47.450;19.124;2024-02-23T12:40:02;2.78;;;1.60;;
44214;SDS011;29884;47.450;19.124;2024-02-23T12:42:28;3.78;;;1.80;;
44214;SDS011;29884;47.450;19.124;2024-02-23T12:44:54;2.75;;;1.67;;
44214;SDS011;29884;47.450;19.124;2024-02-23T12:47:19;4.43;;;2.60;;
44214;SDS011;29884;47.450;19.124;2024-02-23T12:49:45;5.40;;;2.30;;
44214;SDS011;29884;47.450;19.124;2024-02-23T12:52:11;4.68;;;2.65;;
44214;SDS011;29884;47.450;19.124;2024-02-23T12:54:37;6.10;;;2.50;;
44214;SDS011;29884;47.450;19.124;2024-02-23T12:57:02;8.30;;;2.38;;
44214;SDS011;29884;47.450;19.124;2024-02-23T12:59:28;3.15;;;2.00;;
44214;SDS011;29884;47.450;19.124;2024-02-23T13:01:54;6.20;;;2.17;;
44214;SDS011;29884;47.450;19.124;2024-02-23T13:04:19;4.07;;;2.50;;
44214;SDS011;29884;47.450;19.124;2024-02-23T13:06:45;3.92;;;2.55;;
44214;SDS011;29884;47.450;19.124;2024-02-23T13:09:12;3.80;;;2.33;;
44214;SDS011;29884;47.450;19.124;2024-02-23T13:11:39;3.97;;;2.25;;
44214;SDS011;29884;47.450;19.124;2024-02-23T13:14:05;4.10;;;2.13;;
44214;SDS011;29884;47.450;19.124;2024-02-23T13:16:31;4.35;;;2.28;;
44214;SDS011;29884;47.450;19.124;2024-02-23T13:18:57;3.95;;;2.13;;
44214;SDS011;29884;47.450;19.124;2024-02-23T13:21:22;3.80;;;2.10;;
44214;SDS011;29884;47.450;19.124;2024-02-23T13:23:49;2.88;;;1.75;;
44214;SDS011;29884;47.450;19.124;2024-02-23T13:26:14;4.50;;;2.42;;
44214;SDS011;29884;47.450;19.124;2024-02-23T13:28:43;6.07;;;2.50;;
44214;SDS011;29884;47.450;19.124;2024-02-23T13:31:09;3.50;;;2.45;;
44214;SDS011;29884;47.450;19.124;2024-02-23T13:33:35;3.10;;;1.92;;
44214;SDS011;29884;47.450;19.124;2024-02-23T13:36:01;4.50;;;3.13;;
44214;SDS011;29884;47.450;19.124;2024-02-23T13:38:26;4.15;;;2.38;;
44214;SDS011;29884;47.450;19.124;2024-02-23T13:40:52;6.30;;;2.67;;
44214;SDS011;29884;47.450;19.124;2024-02-23T13:43:18;5.25;;;2.08;;
44214;SDS011;29884;47.450;19.124;2024-02-23T13:45:48;3.83;;;2.22;;
44214;SDS011;29884;47.450;19.124;2024-02-23T13:48:17;4.18;;;2.30;;
44214;SDS011;29884;47.450;19.124;2024-02-23T13:50:44;5.35;;;2.10;;
44214;SDS011;29884;47.450;19.124;2024-02-23T13:53:11;4.07;;;2.28;;
44214;SDS011;29884;47.450;19.124;2024-02-23T13:55:38;5.60;;;3.10;;
44214;SDS011;29884;47.450;19.124;2024-02-23T13:58:04;6.15;;;3.20;;
44214;SDS011;29884;47.450;19.124;2024-02-23T14:00:30;4.15;;;2.67;;
44214;SDS011;29884;47.450;19.124;2024-02-23T14:02:55;6.35;;;2.75;;
44214;SDS011;29884;47.450;19.124;2024-02-23T14:05:21;4.63;;;2.60;;
44214;SDS011;29884;47.450;19.124;2024-02-23T14:07:50;3.95;;;2.35;;
44214;SDS011;29884;47.450;19.124;2024-02-23T14:10:16;5.03;;;2.38;;
44214;SDS011;29884;47.450;19.124;2024-02-23T14:12:42;5.53;;;2.85;;
44214;SDS011;29884;47.450;19.124;2024-02-23T14:15:08;5.75;;;2.80;;
44214;SDS011;29884;47.450;19.124;2024-02-23T14:17:34;4.78;;;2.65;;
44214;SDS011;29884;47.450;19.124;2024-02-23T14:20:00;4.53;;;2.80;;
44214;SDS011;29884;47.450;19.124;2024-02-23T14:22:26;4.63;;;2.50;;
44214;SDS011;29884;47.450;19.124;2024-02-23T14:24:53;6.05;;;3.08;;
44214;SDS011;29884;47.450;19.124;2024-02-23T14:27:19;7.40;;;3.58;;
44214;SDS011;29884;47.450;19.124;2024-02-23T14:29:44;5.72;;;3.50;;
44214;SDS011;29884;47.450;19.124;2024-02-23T14:32:14;6.70;;;3.97;;